sensor_id;sensor_type;location;lat;lon;timestamp;temperature;humidity
19248;DHT22;9758;48.640;8.148;2022-12-13T00:01:11;-1.40;61.30
19248;DHT22;9758;48.640;8.148;2022-12-13T00:03:38;-1.40;61.20
19248;DHT22;9758;48.640;8.148;2022-12-13T00:06:05;-1.50;61.10
19248;DHT22;9758;48.640;8.148;2022-12-13T00:08:32;-1.50;61.20
19248;DHT22;9758;48.640;8.148;2022-12-13T00:10:59;-1.50;61.10
19248;DHT22;9758;48.640;8.148;2022-12-13T00:13:27;-1.50;61.10
19248;DHT22;9758;48.640;8.148;2022-12-13T00:15:57;-1.60;61.20
19248;DHT22;9758;48.640;8.148;2022-12-13T00:18:24;-1.60;61.30
19248;DHT22;9758;48.640;8.148;2022-12-13T00:20:51;-1.50;61.50
19248;DHT22;9758;48.640;8.148;2022-12-13T00:23:19;-1.50;61.40
19248;DHT22;9758;48.640;8.148;2022-12-13T00:25:46;-1.50;60.80
19248;DHT22;9758;48.640;8.148;2022-12-13T00:28:15;-1.60;61.10
19248;DHT22;9758;48.640;8.148;2022-12-13T00:30:42;-1.60;61.30
19248;DHT22;9758;48.640;8.148;2022-12-13T00:33:13;-1.60;61.40
19248;DHT22;9758;48.640;8.148;2022-12-13T00:35:40;-1.60;61.20
19248;DHT22;9758;48.640;8.148;2022-12-13T00:38:09;-1.50;61.30
19248;DHT22;9758;48.640;8.148;2022-12-13T00:40:35;-1.60;61.20
19248;DHT22;9758;48.640;8.148;2022-12-13T00:43:02;-1.50;61.30
19248;DHT22;9758;48.640;8.148;2022-12-13T00:45:29;-1.50;61.40
19248;DHT22;9758;48.640;8.148;2022-12-13T00:47:57;-1.50;61.30
19248;DHT22;9758;48.640;8.148;2022-12-13T00:50:25;-1.50;61.20
19248;DHT22;9758;48.640;8.148;2022-12-13T00:52:52;-1.40;61.30
19248;DHT22;9758;48.640;8.148;2022-12-13T00:55:19;-1.40;61.20
19248;DHT22;9758;48.640;8.148;2022-12-13T00:57:46;-1.40;61.20
19248;DHT22;9758;48.640;8.148;2022-12-13T01:00:13;-1.40;61.10
19248;DHT22;9758;48.640;8.148;2022-12-13T01:02:40;-1.40;61.20
19248;DHT22;9758;48.640;8.148;2022-12-13T01:05:08;-1.40;61.10
19248;DHT22;9758;48.640;8.148;2022-12-13T01:07:37;-1.40;61.10
19248;DHT22;9758;48.640;8.148;2022-12-13T01:10:06;-1.40;61.10
19248;DHT22;9758;48.640;8.148;2022-12-13T01:12:34;-1.40;61.10
19248;DHT22;9758;48.640;8.148;2022-12-13T01:15:02;-1.40;60.90
19248;DHT22;9758;48.640;8.148;2022-12-13T01:17:29;-1.40;60.90
19248;DHT22;9758;48.640;8.148;2022-12-13T01:19:56;-1.40;60.90
19248;DHT22;9758;48.640;8.148;2022-12-13T01:22:23;-1.50;60.90
19248;DHT22;9758;48.640;8.148;2022-12-13T01:24:51;-1.50;60.90
19248;DHT22;9758;48.640;8.148;2022-12-13T01:27:18;-1.50;60.90
19248;DHT22;9758;48.640;8.148;2022-12-13T01:29:45;-1.50;61.10
19248;DHT22;9758;48.640;8.148;2022-12-13T01:32:12;-1.50;61.10
19248;DHT22;9758;48.640;8.148;2022-12-13T01:34:39;-1.50;60.90
19248;DHT22;9758;48.640;8.148;2022-12-13T01:37:06;-1.50;60.90
19248;DHT22;9758;48.640;8.148;2022-12-13T01:39:33;-1.50;61.00
19248;DHT22;9758;48.640;8.148;2022-12-13T01:42:03;-1.50;61.00
19248;DHT22;9758;48.640;8.148;2022-12-13T01:44:57;-1.50;61.00
19248;DHT22;9758;48.640;8.148;2022-12-13T01:47:28;-1.50;61.00
19248;DHT22;9758;48.640;8.148;2022-12-13T01:49:59;-1.50;60.90
19248;DHT22;9758;48.640;8.148;2022-12-13T01:52:27;-1.50;60.90
19248;DHT22;9758;48.640;8.148;2022-12-13T01:54:56;-1.50;60.90
19248;DHT22;9758;48.640;8.148;2022-12-13T01:57:25;-1.50;60.90
19248;DHT22;9758;48.640;8.148;2022-12-13T01:59:53;-1.50;60.80
19248;DHT22;9758;48.640;8.148;2022-12-13T02:02:21;-1.50;60.90
19248;DHT22;9758;48.640;8.148;2022-12-13T02:04:53;-1.60;60.90
19248;DHT22;9758;48.640;8.148;2022-12-13T02:07:26;-1.60;60.90
19248;DHT22;9758;48.640;8.148;2022-12-13T02:09:58;-1.50;61.00
19248;DHT22;9758;48.640;8.148;2022-12-13T02:12:28;-1.50;61.00
19248;DHT22;9758;48.640;8.148;2022-12-13T02:14:57;-1.50;61.10
19248;DHT22;9758;48.640;8.148;2022-12-13T02:17:32;-1.50;60.60
19248;DHT22;9758;48.640;8.148;2022-12-13T02:20:26;-1.50;60.90
19248;DHT22;9758;48.640;8.148;2022-12-13T02:23:11;-1.50;60.90
19248;DHT22;9758;48.640;8.148;2022-12-13T02:25:55;-1.50;60.90
19248;DHT22;9758;48.640;8.148;2022-12-13T02:28:43;-1.50;60.90
19248;DHT22;9758;48.640;8.148;2022-12-13T02:31:16;-1.50;60.90
19248;DHT22;9758;48.640;8.148;2022-12-13T02:33:49;-1.50;60.90
19248;DHT22;9758;48.640;8.148;2022-12-13T02:36:23;-1.50;60.90
19248;DHT22;9758;48.640;8.148;2022-12-13T02:38:57;-1.50;60.80
19248;DHT22;9758;48.640;8.148;2022-12-13T02:41:28;-1.50;60.80
19248;DHT22;9758;48.640;8.148;2022-12-13T02:44:03;-1.50;60.80
19248;DHT22;9758;48.640;8.148;2022-12-13T02:46:37;-1.50;60.80
19248;DHT22;9758;48.640;8.148;2022-12-13T02:49:08;-1.50;60.80
19248;DHT22;9758;48.640;8.148;2022-12-13T02:51:35;-1.50;60.80
19248;DHT22;9758;48.640;8.148;2022-12-13T02:54:04;-1.50;60.90
19248;DHT22;9758;48.640;8.148;2022-12-13T02:56:31;-1.50;60.80
19248;DHT22;9758;48.640;8.148;2022-12-13T02:59:01;-1.50;60.90
19248;DHT22;9758;48.640;8.148;2022-12-13T03:01:48;-1.50;60.80
19248;DHT22;9758;48.640;8.148;2022-12-13T03:04:23;-1.50;60.80
19248;DHT22;9758;48.640;8.148;2022-12-13T03:07:03;-1.50;60.80
19248;DHT22;9758;48.640;8.148;2022-12-13T03:09:42;-1.50;60.70
19248;DHT22;9758;48.640;8.148;2022-12-13T03:12:18;-1.50;60.60
19248;DHT22;9758;48.640;8.148;2022-12-13T03:15:13;-1.50;60.70
19248;DHT22;9758;48.640;8.148;2022-12-13T03:17:47;-1.40;60.80
19248;DHT22;9758;48.640;8.148;2022-12-13T03:20:21;-1.50;60.60
19248;DHT22;9758;48.640;8.148;2022-12-13T03:22:49;-1.50;60.60
19248;DHT22;9758;48.640;8.148;2022-12-13T03:25:16;-1.50;60.60
19248;DHT22;9758;48.640;8.148;2022-12-13T03:27:44;-1.50;60.60
19248;DHT22;9758;48.640;8.148;2022-12-13T03:30:11;-1.50;60.70
19248;DHT22;9758;48.640;8.148;2022-12-13T03:32:38;-1.50;60.30
19248;DHT22;9758;48.640;8.148;2022-12-13T03:35:08;-1.50;60.30
19248;DHT22;9758;48.640;8.148;2022-12-13T03:37:35;-1.50;60.60
19248;DHT22;9758;48.640;8.148;2022-12-13T03:40:02;-1.50;60.70
19248;DHT22;9758;48.640;8.148;2022-12-13T03:42:29;-1.40;60.80
19248;DHT22;9758;48.640;8.148;2022-12-13T03:44:56;-1.40;60.80
19248;DHT22;9758;48.640;8.148;2022-12-13T03:47:23;-1.40;60.70
19248;DHT22;9758;48.640;8.148;2022-12-13T03:49:50;-1.40;60.60
19248;DHT22;9758;48.640;8.148;2022-12-13T03:52:18;-1.30;60.60
19248;DHT22;9758;48.640;8.148;2022-12-13T03:54:45;-1.40;60.50
19248;DHT22;9758;48.640;8.148;2022-12-13T03:57:12;-1.40;60.50
19248;DHT22;9758;48.640;8.148;2022-12-13T03:59:40;-1.30;60.60
19248;DHT22;9758;48.640;8.148;2022-12-13T04:02:07;-1.40;60.50
19248;DHT22;9758;48.640;8.148;2022-12-13T04:04:33;-1.40;60.30
19248;DHT22;9758;48.640;8.148;2022-12-13T04:07:00;-1.40;60.30
19248;DHT22;9758;48.640;8.148;2022-12-13T04:09:28;-1.40;60.30
19248;DHT22;9758;48.640;8.148;2022-12-13T04:11:57;-1.40;60.30
19248;DHT22;9758;48.640;8.148;2022-12-13T04:14:41;-1.40;60.30
19248;DHT22;9758;48.640;8.148;2022-12-13T04:17:08;-1.50;60.30
19248;DHT22;9758;48.640;8.148;2022-12-13T04:19:35;-1.50;60.30
19248;DHT22;9758;48.640;8.148;2022-12-13T04:22:03;-1.50;59.90
19248;DHT22;9758;48.640;8.148;2022-12-13T04:24:31;-1.50;61.00
19248;DHT22;9758;48.640;8.148;2022-12-13T04:27:01;-1.60;60.30
19248;DHT22;9758;48.640;8.148;2022-12-13T04:29:27;-1.60;60.40
19248;DHT22;9758;48.640;8.148;2022-12-13T04:31:54;-1.60;60.40
19248;DHT22;9758;48.640;8.148;2022-12-13T04:34:22;-1.60;60.50
19248;DHT22;9758;48.640;8.148;2022-12-13T04:36:48;-1.60;60.40
19248;DHT22;9758;48.640;8.148;2022-12-13T04:39:15;-1.60;60.40
19248;DHT22;9758;48.640;8.148;2022-12-13T04:41:44;-1.60;60.50
19248;DHT22;9758;48.640;8.148;2022-12-13T04:44:10;-1.60;60.50
19248;DHT22;9758;48.640;8.148;2022-12-13T04:46:37;-1.60;60.20
19248;DHT22;9758;48.640;8.148;2022-12-13T04:49:04;-1.60;60.30
19248;DHT22;9758;48.640;8.148;2022-12-13T04:51:31;-1.70;60.30
19248;DHT22;9758;48.640;8.148;2022-12-13T04:53:58;-1.70;60.20
19248;DHT22;9758;48.640;8.148;2022-12-13T04:56:25;-1.70;60.30
19248;DHT22;9758;48.640;8.148;2022-12-13T04:58:53;-1.70;60.30
19248;DHT22;9758;48.640;8.148;2022-12-13T05:01:21;-1.70;60.40
19248;DHT22;9758;48.640;8.148;2022-12-13T05:03:48;-1.80;60.40
19248;DHT22;9758;48.640;8.148;2022-12-13T05:06:15;-1.80;60.30
19248;DHT22;9758;48.640;8.148;2022-12-13T05:08:42;-1.80;60.40
19248;DHT22;9758;48.640;8.148;2022-12-13T05:11:10;-1.80;60.00
19248;DHT22;9758;48.640;8.148;2022-12-13T05:13:38;-1.90;60.00
19248;DHT22;9758;48.640;8.148;2022-12-13T05:16:07;-1.90;60.20
19248;DHT22;9758;48.640;8.148;2022-12-13T05:18:35;-2.00;60.30
19248;DHT22;9758;48.640;8.148;2022-12-13T05:21:02;-2.00;60.40
19248;DHT22;9758;48.640;8.148;2022-12-13T05:23:30;-2.00;60.50
19248;DHT22;9758;48.640;8.148;2022-12-13T05:25:57;-2.00;60.50
19248;DHT22;9758;48.640;8.148;2022-12-13T05:28:25;-2.00;60.50
19248;DHT22;9758;48.640;8.148;2022-12-13T05:30:53;-2.00;60.50
19248;DHT22;9758;48.640;8.148;2022-12-13T05:33:22;-2.00;60.50
19248;DHT22;9758;48.640;8.148;2022-12-13T05:35:50;-1.90;60.50
19248;DHT22;9758;48.640;8.148;2022-12-13T05:38:17;-1.90;60.50
19248;DHT22;9758;48.640;8.148;2022-12-13T05:40:44;-1.90;60.50
19248;DHT22;9758;48.640;8.148;2022-12-13T05:43:11;-1.90;60.50
19248;DHT22;9758;48.640;8.148;2022-12-13T05:45:38;-1.90;60.50
19248;DHT22;9758;48.640;8.148;2022-12-13T05:48:06;-1.90;60.60
19248;DHT22;9758;48.640;8.148;2022-12-13T05:50:34;-1.90;60.50
19248;DHT22;9758;48.640;8.148;2022-12-13T05:53:03;-1.90;60.50
19248;DHT22;9758;48.640;8.148;2022-12-13T05:55:30;-1.90;60.40
19248;DHT22;9758;48.640;8.148;2022-12-13T05:57:57;-1.90;61.10
19248;DHT22;9758;48.640;8.148;2022-12-13T06:00:26;-1.90;60.30
19248;DHT22;9758;48.640;8.148;2022-12-13T06:02:53;-1.90;60.30
19248;DHT22;9758;48.640;8.148;2022-12-13T06:05:21;-1.90;60.30
19248;DHT22;9758;48.640;8.148;2022-12-13T06:07:49;-1.90;60.30
19248;DHT22;9758;48.640;8.148;2022-12-13T06:10:16;-1.90;60.20
19248;DHT22;9758;48.640;8.148;2022-12-13T06:12:43;-1.90;60.20
19248;DHT22;9758;48.640;8.148;2022-12-13T06:15:10;-1.90;60.20
19248;DHT22;9758;48.640;8.148;2022-12-13T06:17:37;-1.90;60.10
19248;DHT22;9758;48.640;8.148;2022-12-13T06:20:06;-1.90;60.20
19248;DHT22;9758;48.640;8.148;2022-12-13T06:22:33;-2.00;60.20
19248;DHT22;9758;48.640;8.148;2022-12-13T06:25:05;-2.00;60.20
19248;DHT22;9758;48.640;8.148;2022-12-13T06:27:32;-2.00;60.20
19248;DHT22;9758;48.640;8.148;2022-12-13T06:29:59;-2.00;60.10
19248;DHT22;9758;48.640;8.148;2022-12-13T06:32:26;-2.00;60.20
19248;DHT22;9758;48.640;8.148;2022-12-13T06:34:53;-2.10;60.20
19248;DHT22;9758;48.640;8.148;2022-12-13T06:37:20;-2.10;60.10
19248;DHT22;9758;48.640;8.148;2022-12-13T06:39:47;-2.10;60.20
19248;DHT22;9758;48.640;8.148;2022-12-13T06:42:18;-2.10;60.30
19248;DHT22;9758;48.640;8.148;2022-12-13T06:44:45;-2.10;60.30
19248;DHT22;9758;48.640;8.148;2022-12-13T06:47:12;-2.10;60.20
19248;DHT22;9758;48.640;8.148;2022-12-13T06:49:40;-2.10;60.20
19248;DHT22;9758;48.640;8.148;2022-12-13T06:52:07;-2.00;60.30
19248;DHT22;9758;48.640;8.148;2022-12-13T06:54:35;-2.10;60.20
19248;DHT22;9758;48.640;8.148;2022-12-13T06:57:02;-2.10;60.20
19248;DHT22;9758;48.640;8.148;2022-12-13T06:59:30;-2.10;60.20
19248;DHT22;9758;48.640;8.148;2022-12-13T07:01:57;-2.10;60.20
19248;DHT22;9758;48.640;8.148;2022-12-13T07:04:24;-2.10;60.20
19248;DHT22;9758;48.640;8.148;2022-12-13T07:06:51;-2.10;60.30
19248;DHT22;9758;48.640;8.148;2022-12-13T07:09:18;-2.00;60.30
19248;DHT22;9758;48.640;8.148;2022-12-13T07:11:45;-2.00;60.30
19248;DHT22;9758;48.640;8.148;2022-12-13T07:14:13;-2.00;60.20
19248;DHT22;9758;48.640;8.148;2022-12-13T07:16:42;-2.00;60.20
19248;DHT22;9758;48.640;8.148;2022-12-13T07:19:10;-2.00;60.30
19248;DHT22;9758;48.640;8.148;2022-12-13T07:21:37;-2.00;60.20
19248;DHT22;9758;48.640;8.148;2022-12-13T07:24:05;-2.00;60.20
19248;DHT22;9758;48.640;8.148;2022-12-13T07:26:32;-1.90;60.30
19248;DHT22;9758;48.640;8.148;2022-12-13T07:28:59;-1.90;60.20
19248;DHT22;9758;48.640;8.148;2022-12-13T07:31:26;-1.90;60.20
19248;DHT22;9758;48.640;8.148;2022-12-13T07:33:54;-1.90;60.20
19248;DHT22;9758;48.640;8.148;2022-12-13T07:36:22;-1.90;60.20
19248;DHT22;9758;48.640;8.148;2022-12-13T07:38:50;-1.80;60.00
19248;DHT22;9758;48.640;8.148;2022-12-13T07:41:17;-1.80;60.20
19248;DHT22;9758;48.640;8.148;2022-12-13T07:43:44;-1.80;60.30
19248;DHT22;9758;48.640;8.148;2022-12-13T07:46:12;-1.80;60.20
19248;DHT22;9758;48.640;8.148;2022-12-13T07:48:39;-1.80;60.20
19248;DHT22;9758;48.640;8.148;2022-12-13T07:51:13;-1.70;60.20
19248;DHT22;9758;48.640;8.148;2022-12-13T07:53:43;-1.70;60.30
19248;DHT22;9758;48.640;8.148;2022-12-13T07:56:11;-1.70;60.30
19248;DHT22;9758;48.640;8.148;2022-12-13T07:58:38;-1.60;60.30
19248;DHT22;9758;48.640;8.148;2022-12-13T08:01:07;-1.50;60.10
19248;DHT22;9758;48.640;8.148;2022-12-13T08:03:35;-1.60;59.70
19248;DHT22;9758;48.640;8.148;2022-12-13T08:06:03;-1.60;59.90
19248;DHT22;9758;48.640;8.148;2022-12-13T08:08:34;-1.60;60.10
19248;DHT22;9758;48.640;8.148;2022-12-13T08:11:03;-1.60;60.20
19248;DHT22;9758;48.640;8.148;2022-12-13T08:13:30;-1.60;59.90
19248;DHT22;9758;48.640;8.148;2022-12-13T08:15:58;-1.70;60.00
19248;DHT22;9758;48.640;8.148;2022-12-13T08:18:25;-1.70;60.10
19248;DHT22;9758;48.640;8.148;2022-12-13T08:20:56;-1.70;59.90
19248;DHT22;9758;48.640;8.148;2022-12-13T08:23:24;-1.70;60.20
19248;DHT22;9758;48.640;8.148;2022-12-13T08:25:53;-1.60;60.30
19248;DHT22;9758;48.640;8.148;2022-12-13T08:28:20;-1.60;60.30
19248;DHT22;9758;48.640;8.148;2022-12-13T08:30:48;-1.60;60.30
19248;DHT22;9758;48.640;8.148;2022-12-13T08:33:15;-1.50;60.20
19248;DHT22;9758;48.640;8.148;2022-12-13T08:35:42;-1.50;60.00
19248;DHT22;9758;48.640;8.148;2022-12-13T08:38:09;-1.50;60.10
19248;DHT22;9758;48.640;8.148;2022-12-13T08:40:36;-1.50;60.20
19248;DHT22;9758;48.640;8.148;2022-12-13T08:43:05;-1.50;60.20
19248;DHT22;9758;48.640;8.148;2022-12-13T08:45:32;-1.50;60.30
19248;DHT22;9758;48.640;8.148;2022-12-13T08:48:00;-1.40;60.20
19248;DHT22;9758;48.640;8.148;2022-12-13T08:50:29;-1.40;60.30
19248;DHT22;9758;48.640;8.148;2022-12-13T08:52:56;-1.30;60.30
19248;DHT22;9758;48.640;8.148;2022-12-13T08:55:24;-1.30;60.40
19248;DHT22;9758;48.640;8.148;2022-12-13T08:57:54;-1.30;60.30
19248;DHT22;9758;48.640;8.148;2022-12-13T09:00:22;-1.20;60.30
19248;DHT22;9758;48.640;8.148;2022-12-13T09:02:49;-1.20;60.20
19248;DHT22;9758;48.640;8.148;2022-12-13T09:05:16;-1.10;60.20
19248;DHT22;9758;48.640;8.148;2022-12-13T09:07:47;-1.20;60.00
19248;DHT22;9758;48.640;8.148;2022-12-13T09:10:14;-1.20;60.20
19248;DHT22;9758;48.640;8.148;2022-12-13T09:12:42;-1.20;60.30
19248;DHT22;9758;48.640;8.148;2022-12-13T09:15:09;-1.10;60.30
19248;DHT22;9758;48.640;8.148;2022-12-13T09:17:39;-1.10;60.30
19248;DHT22;9758;48.640;8.148;2022-12-13T09:20:08;-1.00;60.20
19248;DHT22;9758;48.640;8.148;2022-12-13T09:22:36;-1.00;60.20
19248;DHT22;9758;48.640;8.148;2022-12-13T09:25:04;-1.00;60.30
19248;DHT22;9758;48.640;8.148;2022-12-13T09:27:32;-0.90;59.90
19248;DHT22;9758;48.640;8.148;2022-12-13T09:29:59;-0.90;60.10
19248;DHT22;9758;48.640;8.148;2022-12-13T09:32:26;-0.80;60.40
19248;DHT22;9758;48.640;8.148;2022-12-13T09:34:56;-0.80;60.30
19248;DHT22;9758;48.640;8.148;2022-12-13T09:37:23;-0.70;60.40
19248;DHT22;9758;48.640;8.148;2022-12-13T09:39:50;-0.60;60.30
19248;DHT22;9758;48.640;8.148;2022-12-13T09:42:19;-0.50;60.40
19248;DHT22;9758;48.640;8.148;2022-12-13T09:44:50;-0.50;60.40
19248;DHT22;9758;48.640;8.148;2022-12-13T09:47:27;-0.30;60.50
19248;DHT22;9758;48.640;8.148;2022-12-13T09:49:58;-0.20;60.50
19248;DHT22;9758;48.640;8.148;2022-12-13T09:52:28;-0.10;59.90
19248;DHT22;9758;48.640;8.148;2022-12-13T09:54:56;-0.20;59.40
19248;DHT22;9758;48.640;8.148;2022-12-13T09:57:26;-0.30;59.30
19248;DHT22;9758;48.640;8.148;2022-12-13T09:59:55;-0.40;59.50
19248;DHT22;9758;48.640;8.148;2022-12-13T10:02:24;-0.50;60.00
19248;DHT22;9758;48.640;8.148;2022-12-13T10:04:54;-0.50;60.30
19248;DHT22;9758;48.640;8.148;2022-12-13T10:07:24;-0.50;60.20
19248;DHT22;9758;48.640;8.148;2022-12-13T10:10:00;-0.50;60.50
19248;DHT22;9758;48.640;8.148;2022-12-13T10:12:27;-0.50;60.50
19248;DHT22;9758;48.640;8.148;2022-12-13T10:14:57;-0.50;60.50
19248;DHT22;9758;48.640;8.148;2022-12-13T10:17:33;-0.50;60.50
19248;DHT22;9758;48.640;8.148;2022-12-13T10:20:02;-0.50;60.10
19248;DHT22;9758;48.640;8.148;2022-12-13T10:22:36;-0.50;60.30
19248;DHT22;9758;48.640;8.148;2022-12-13T10:25:05;-0.50;60.40
19248;DHT22;9758;48.640;8.148;2022-12-13T10:27:35;-0.50;60.50
19248;DHT22;9758;48.640;8.148;2022-12-13T10:30:06;-0.50;60.50
19248;DHT22;9758;48.640;8.148;2022-12-13T10:32:42;-0.50;60.60
19248;DHT22;9758;48.640;8.148;2022-12-13T10:35:25;-0.50;60.80
19248;DHT22;9758;48.640;8.148;2022-12-13T10:37:56;-0.40;60.70
19248;DHT22;9758;48.640;8.148;2022-12-13T10:40:29;-0.30;60.80
19248;DHT22;9758;48.640;8.148;2022-12-13T10:43:21;-0.30;60.80
19248;DHT22;9758;48.640;8.148;2022-12-13T10:45:58;-0.20;60.70
19248;DHT22;9758;48.640;8.148;2022-12-13T10:48:33;-0.10;60.80
19248;DHT22;9758;48.640;8.148;2022-12-13T10:51:02;-0.10;60.70
19248;DHT22;9758;48.640;8.148;2022-12-13T10:53:33;0.00;60.60
19248;DHT22;9758;48.640;8.148;2022-12-13T10:56:02;0.10;60.70
19248;DHT22;9758;48.640;8.148;2022-12-13T10:58:37;0.20;60.40
19248;DHT22;9758;48.640;8.148;2022-12-13T11:01:20;0.20;60.40
19248;DHT22;9758;48.640;8.148;2022-12-13T11:03:58;0.20;60.50
19248;DHT22;9758;48.640;8.148;2022-12-13T11:06:26;0.30;60.60
19248;DHT22;9758;48.640;8.148;2022-12-13T11:08:55;0.40;60.70
19248;DHT22;9758;48.640;8.148;2022-12-13T11:11:27;0.50;60.70
19248;DHT22;9758;48.640;8.148;2022-12-13T11:13:58;0.60;60.70
19248;DHT22;9758;48.640;8.148;2022-12-13T11:16:31;0.70;60.20
19248;DHT22;9758;48.640;8.148;2022-12-13T11:19:02;0.80;60.50
19248;DHT22;9758;48.640;8.148;2022-12-13T11:21:31;0.80;59.80
19248;DHT22;9758;48.640;8.148;2022-12-13T11:24:01;0.80;59.70
19248;DHT22;9758;48.640;8.148;2022-12-13T11:26:39;0.80;59.90
19248;DHT22;9758;48.640;8.148;2022-12-13T11:29:24;0.80;60.20
19248;DHT22;9758;48.640;8.148;2022-12-13T11:31:59;0.80;60.30
19248;DHT22;9758;48.640;8.148;2022-12-13T11:34:40;0.80;60.10
19248;DHT22;9758;48.640;8.148;2022-12-13T11:37:19;0.80;60.40
19248;DHT22;9758;48.640;8.148;2022-12-13T11:39:55;0.90;60.40
19248;DHT22;9758;48.640;8.148;2022-12-13T11:42:28;1.00;60.40
19248;DHT22;9758;48.640;8.148;2022-12-13T11:45:05;1.00;60.10
19248;DHT22;9758;48.640;8.148;2022-12-13T11:47:41;1.10;60.10
19248;DHT22;9758;48.640;8.148;2022-12-13T11:50:14;1.10;60.10
19248;DHT22;9758;48.640;8.148;2022-12-13T11:52:47;1.10;60.10
19248;DHT22;9758;48.640;8.148;2022-12-13T11:55:20;1.20;60.10
19248;DHT22;9758;48.640;8.148;2022-12-13T11:57:53;1.20;60.20
19248;DHT22;9758;48.640;8.148;2022-12-13T12:00:32;1.20;60.20
19248;DHT22;9758;48.640;8.148;2022-12-13T12:03:09;1.30;60.40
19248;DHT22;9758;48.640;8.148;2022-12-13T12:05:52;1.40;60.30
19248;DHT22;9758;48.640;8.148;2022-12-13T12:08:26;1.40;60.00
19248;DHT22;9758;48.640;8.148;2022-12-13T12:11:03;1.40;60.10
19248;DHT22;9758;48.640;8.148;2022-12-13T12:13:35;1.40;60.10
19248;DHT22;9758;48.640;8.148;2022-12-13T12:16:12;1.50;60.20
19248;DHT22;9758;48.640;8.148;2022-12-13T12:18:49;1.50;59.80
19248;DHT22;9758;48.640;8.148;2022-12-13T12:21:32;1.60;59.70
19248;DHT22;9758;48.640;8.148;2022-12-13T12:24:12;1.60;59.70
19248;DHT22;9758;48.640;8.148;2022-12-13T12:26:54;1.50;59.50
19248;DHT22;9758;48.640;8.148;2022-12-13T12:29:38;1.50;59.50
19248;DHT22;9758;48.640;8.148;2022-12-13T12:32:14;1.50;59.80
19248;DHT22;9758;48.640;8.148;2022-12-13T12:34:47;1.50;60.00
19248;DHT22;9758;48.640;8.148;2022-12-13T12:37:27;1.50;60.00
19248;DHT22;9758;48.640;8.148;2022-12-13T12:43:23;1.60;60.10
19248;DHT22;9758;48.640;8.148;2022-12-13T12:46:05;1.70;60.00
19248;DHT22;9758;48.640;8.148;2022-12-13T12:49:00;1.70;60.00
19248;DHT22;9758;48.640;8.148;2022-12-13T12:51:37;1.70;59.90
19248;DHT22;9758;48.640;8.148;2022-12-13T12:54:22;1.80;60.00
19248;DHT22;9758;48.640;8.148;2022-12-13T12:56:58;1.80;60.00
19248;DHT22;9758;48.640;8.148;2022-12-13T12:59:38;1.90;59.20
19248;DHT22;9758;48.640;8.148;2022-12-13T13:02:16;1.80;59.60
19248;DHT22;9758;48.640;8.148;2022-12-13T13:04:49;1.70;59.40
19248;DHT22;9758;48.640;8.148;2022-12-13T13:07:22;1.70;59.60
19248;DHT22;9758;48.640;8.148;2022-12-13T13:09:51;1.60;59.40
19248;DHT22;9758;48.640;8.148;2022-12-13T13:12:19;1.60;59.90
19248;DHT22;9758;48.640;8.148;2022-12-13T13:14:47;1.60;59.70
19248;DHT22;9758;48.640;8.148;2022-12-13T13:17:44;1.60;59.90
19248;DHT22;9758;48.640;8.148;2022-12-13T13:20:21;1.60;60.00
19248;DHT22;9758;48.640;8.148;2022-12-13T13:22:50;1.70;59.80
19248;DHT22;9758;48.640;8.148;2022-12-13T13:25:52;1.70;59.80
19248;DHT22;9758;48.640;8.148;2022-12-13T13:28:21;1.60;59.90
19248;DHT22;9758;48.640;8.148;2022-12-13T13:31:02;1.70;60.00
19248;DHT22;9758;48.640;8.148;2022-12-13T13:33:44;1.70;60.00
19248;DHT22;9758;48.640;8.148;2022-12-13T13:39:53;1.90;60.00
19248;DHT22;9758;48.640;8.148;2022-12-13T13:42:22;1.90;60.00
19248;DHT22;9758;48.640;8.148;2022-12-13T13:44:55;2.00;59.90
19248;DHT22;9758;48.640;8.148;2022-12-13T13:47:42;2.00;59.90
19248;DHT22;9758;48.640;8.148;2022-12-13T13:53:54;2.10;59.70
19248;DHT22;9758;48.640;8.148;2022-12-13T13:57:03;2.20;59.80
19248;DHT22;9758;48.640;8.148;2022-12-13T13:59:58;2.10;59.10
19248;DHT22;9758;48.640;8.148;2022-12-13T14:06:13;1.90;59.60
19248;DHT22;9758;48.640;8.148;2022-12-13T14:08:57;1.90;59.90
19248;DHT22;9758;48.640;8.148;2022-12-13T14:12:02;1.90;59.70
19248;DHT22;9758;48.640;8.148;2022-12-13T14:15:00;1.90;59.80
19248;DHT22;9758;48.640;8.148;2022-12-13T14:18:01;1.90;59.90
19248;DHT22;9758;48.640;8.148;2022-12-13T14:20:44;1.90;59.90
19248;DHT22;9758;48.640;8.148;2022-12-13T14:23:21;1.90;60.00
19248;DHT22;9758;48.640;8.148;2022-12-13T14:26:18;1.80;59.70
19248;DHT22;9758;48.640;8.148;2022-12-13T14:28:51;1.80;59.80
19248;DHT22;9758;48.640;8.148;2022-12-13T14:31:24;1.80;59.70
19248;DHT22;9758;48.640;8.148;2022-12-13T14:34:03;1.70;59.80
19248;DHT22;9758;48.640;8.148;2022-12-13T14:36:34;1.70;59.80
19248;DHT22;9758;48.640;8.148;2022-12-13T14:39:12;1.60;59.60
19248;DHT22;9758;48.640;8.148;2022-12-13T14:41:44;1.60;59.80
19248;DHT22;9758;48.640;8.148;2022-12-13T14:44:15;1.60;59.90
19248;DHT22;9758;48.640;8.148;2022-12-13T14:46:50;1.50;59.70
19248;DHT22;9758;48.640;8.148;2022-12-13T14:49:18;1.50;59.80
19248;DHT22;9758;48.640;8.148;2022-12-13T14:51:52;1.50;60.00
19248;DHT22;9758;48.640;8.148;2022-12-13T14:54:39;1.40;59.80
19248;DHT22;9758;48.640;8.148;2022-12-13T14:57:15;1.40;59.70
19248;DHT22;9758;48.640;8.148;2022-12-13T14:59:46;1.30;59.70
19248;DHT22;9758;48.640;8.148;2022-12-13T15:02:15;1.20;59.80
19248;DHT22;9758;48.640;8.148;2022-12-13T15:04:44;1.20;60.60
19248;DHT22;9758;48.640;8.148;2022-12-13T15:07:19;1.20;60.00
19248;DHT22;9758;48.640;8.148;2022-12-13T15:09:53;1.20;60.10
19248;DHT22;9758;48.640;8.148;2022-12-13T15:12:23;1.20;60.00
19248;DHT22;9758;48.640;8.148;2022-12-13T15:14:57;1.20;60.00
19248;DHT22;9758;48.640;8.148;2022-12-13T15:17:29;1.20;59.70
19248;DHT22;9758;48.640;8.148;2022-12-13T15:19:57;1.20;60.00
19248;DHT22;9758;48.640;8.148;2022-12-13T15:22:25;1.10;60.10
19248;DHT22;9758;48.640;8.148;2022-12-13T15:24:55;1.10;60.10
19248;DHT22;9758;48.640;8.148;2022-12-13T15:27:22;1.10;60.10
19248;DHT22;9758;48.640;8.148;2022-12-13T15:29:50;1.10;60.10
19248;DHT22;9758;48.640;8.148;2022-12-13T15:32:19;1.10;60.00
19248;DHT22;9758;48.640;8.148;2022-12-13T15:34:48;1.10;60.00
19248;DHT22;9758;48.640;8.148;2022-12-13T15:37:21;1.10;60.70
19248;DHT22;9758;48.640;8.148;2022-12-13T15:39:51;1.10;60.00
19248;DHT22;9758;48.640;8.148;2022-12-13T15:42:24;1.10;60.00
19248;DHT22;9758;48.640;8.148;2022-12-13T15:44:55;1.00;59.90
19248;DHT22;9758;48.640;8.148;2022-12-13T15:47:23;1.00;60.00
19248;DHT22;9758;48.640;8.148;2022-12-13T15:49:59;0.90;60.10
19248;DHT22;9758;48.640;8.148;2022-12-13T15:52:30;0.90;60.00
19248;DHT22;9758;48.640;8.148;2022-12-13T15:54:59;0.80;60.10
19248;DHT22;9758;48.640;8.148;2022-12-13T15:57:29;0.80;60.20
19248;DHT22;9758;48.640;8.148;2022-12-13T16:00:19;0.70;60.30
19248;DHT22;9758;48.640;8.148;2022-12-13T16:02:51;0.80;60.40
19248;DHT22;9758;48.640;8.148;2022-12-13T16:05:24;0.80;60.30
19248;DHT22;9758;48.640;8.148;2022-12-13T16:07:53;0.80;60.40
19248;DHT22;9758;48.640;8.148;2022-12-13T16:10:21;0.80;60.40
19248;DHT22;9758;48.640;8.148;2022-12-13T16:13:04;0.80;60.40
19248;DHT22;9758;48.640;8.148;2022-12-13T16:15:47;0.80;60.30
19248;DHT22;9758;48.640;8.148;2022-12-13T16:18:19;0.80;60.30
19248;DHT22;9758;48.640;8.148;2022-12-13T16:20:47;0.80;60.40
19248;DHT22;9758;48.640;8.148;2022-12-13T16:23:16;0.80;60.30
19248;DHT22;9758;48.640;8.148;2022-12-13T16:25:43;0.80;60.40
19248;DHT22;9758;48.640;8.148;2022-12-13T16:28:15;0.80;60.40
19248;DHT22;9758;48.640;8.148;2022-12-13T16:31:08;0.80;60.40
19248;DHT22;9758;48.640;8.148;2022-12-13T16:33:38;0.80;60.40